Time;durP1;ratioP1;P1;durP2;ratioP2;P2;SDS_P1;SDS_P2;PMS_P1;PMS_P2;Temp;Humidity;BMP_temperature;BMP_pressure;BME280_temperature;BME280_humidity;BME280_pressure;Samples;Min_cycle;Max_cycle;Signal;HPM_P1;HPM_P2
2023/07/22 00:00:47;;;;;;;2.87;2.67;;;;;;;13.78;100.00;100258.25;5038131;28;20208;-83
2023/07/22 00:03:13;;;;;;;5.40;3.50;;;;;;;13.78;100.00;100258.25;5020897;28;20212;-82
2023/07/22 00:05:39;;;;;;;4.57;4.17;;;;;;;13.83;100.00;100258.81;5021512;28;20179;-85
2023/07/22 00:08:05;;;;;;;2.30;2.20;;;;;;;13.86;100.00;100254.59;5039914;28;20847;-83
2023/07/22 00:10:30;;;;;;;4.67;2.77;;;;;;;13.78;100.00;100250.00;5039957;28;20187;-84
2023/07/22 00:12:56;;;;;;;2.97;2.77;;;;;;;13.78;100.00;100255.50;5022148;28;20204;-85
2023/07/22 00:15:23;;;;;;;3.07;2.77;;;;;;;13.84;100.00;100263.16;5041815;28;20184;-85
2023/07/22 00:17:49;;;;;;;4.40;4.00;;;;;;;13.73;100.00;100264.72;5040654;28;20187;-83
2023/07/22 00:20:14;;;;;;;1.00;1.00;;;;;;;13.76;100.00;100272.31;5035673;28;20203;-85
2023/07/22 00:22:40;;;;;;;2.40;2.27;;;;;;;13.77;100.00;100275.84;5034962;28;20199;-84
2023/07/22 00:25:12;;;;;;;3.47;3.17;;;;;;;13.81;100.00;100272.09;5016049;28;20263;-84
2023/07/22 00:27:42;;;;;;;4.83;3.30;;;;;;;13.86;100.00;100282.06;5034597;28;20662;-85
2023/07/22 00:30:08;;;;;;;6.00;5.07;;;;;;;13.89;100.00;100278.66;5033209;28;20176;-84
2023/07/22 00:32:36;;;;;;;3.03;2.53;;;;;;;13.93;100.00;100277.63;5034772;28;20235;-84
2023/07/22 00:35:02;;;;;;;4.43;3.50;;;;;;;13.94;100.00;100279.25;5033708;28;20677;-84
2023/07/22 00:37:27;;;;;;;2.13;2.03;;;;;;;13.96;100.00;100278.91;5015636;28;20181;-84
2023/07/22 00:39:54;;;;;;;11.77;4.20;;;;;;;13.91;100.00;100279.91;5033410;28;20190;-84
2023/07/22 00:42:20;;;;;;;4.13;3.83;;;;;;;13.92;100.00;100292.50;5015076;28;20200;-84
2023/07/22 00:44:45;;;;;;;1.63;1.40;;;;;;;14.08;100.00;100283.63;5015636;28;20562;-84
2023/07/22 00:47:11;;;;;;;3.20;2.90;;;;;;;14.00;100.00;100277.06;5033143;28;20188;-84
2023/07/22 00:49:36;;;;;;;16.60;2.63;;;;;;;13.96;100.00;100281.66;5025468;28;20180;-84
2023/07/22 00:52:03;;;;;;;10.50;4.00;;;;;;;13.90;100.00;100272.81;5031966;28;20199;-84
2023/07/22 00:54:30;;;;;;;2.47;2.37;;;;;;;13.86;100.00;100280.13;5032835;28;20660;-84
2023/07/22 00:56:57;;;;;;;1.33;1.23;;;;;;;13.83;100.00;100274.50;5032545;28;20184;-84
2023/07/22 00:59:23;;;;;;;4.60;4.23;;;;;;;13.72;100.00;100284.28;5015506;28;20321;-83
2023/07/22 01:01:49;;;;;;;3.57;3.27;;;;;;;13.68;100.00;100273.19;5024540;28;20619;-84
2023/07/22 01:04:16;;;;;;;9.80;4.97;;;;;;;13.69;100.00;100278.31;5014662;28;20191;-84
2023/07/22 01:06:43;;;;;;;4.63;4.23;;;;;;;13.68;100.00;100284.16;5033150;28;20177;-83
2023/07/22 01:09:09;;;;;;;3.17;2.90;;;;;;;13.58;100.00;100279.88;5015546;28;20184;-84
2023/07/22 01:11:34;;;;;;;4.73;4.33;;;;;;;13.49;100.00;100270.91;5032976;28;20262;-84
2023/07/22 01:14:00;;;;;;;4.73;4.37;;;;;;;13.49;100.00;100287.38;5032336;28;20290;-84
2023/07/22 01:16:27;;;;;;;2.30;1.10;;;;;;;13.54;100.00;100283.63;5032589;28;20179;-84
2023/07/22 01:18:53;;;;;;;2.10;1.47;;;;;;;13.55;100.00;100283.28;5014791;28;20234;-84
2023/07/22 01:21:20;;;;;;;2.37;2.20;;;;;;;13.49;100.00;100275.59;5031935;28;20192;-84
2023/07/22 01:23:47;;;;;;;3.30;3.10;;;;;;;13.53;100.00;100276.53;5014629;28;20195;-84
2023/07/22 01:26:12;;;;;;;5.00;4.60;;;;;;;13.50;100.00;100286.25;5032555;28;20187;-84
2023/07/22 01:28:37;;;;;;;1.47;1.37;;;;;;;13.53;100.00;100290.25;5014750;28;20179;-84
2023/07/22 01:31:03;;;;;;;4.50;3.63;;;;;;;13.54;100.00;100284.44;5006147;28;20179;-84
2023/07/22 01:33:28;;;;;;;3.20;3.00;;;;;;;13.45;100.00;100283.69;5014895;28;20207;-84
2023/07/22 01:35:54;;;;;;;1.63;1.53;;;;;;;13.46;100.00;100282.56;5014596;28;20184;-84
2023/07/22 01:38:19;;;;;;;1.83;1.73;;;;;;;13.39;100.00;100280.34;5032291;28;20194;-83
2023/07/22 01:40:44;;;;;;;5.10;4.60;;;;;;;13.34;100.00;100283.28;5031764;28;20215;-83
2023/07/22 01:43:10;;;;;;;5.37;4.03;;;;;;;13.34;100.00;100277.00;5014101;28;20203;-84
2023/07/22 01:45:35;;;;;;;4.00;3.77;;;;;;;13.27;100.00;100276.72;5014463;28;20214;-85
2023/07/22 01:48:00;;;;;;;4.20;3.33;;;;;;;13.19;100.00;100280.34;5031915;28;20267;-83
2023/07/22 01:50:25;;;;;;;2.67;2.47;;;;;;;13.22;100.00;100283.22;5031763;28;20180;-83
2023/07/22 01:52:51;;;;;;;8.33;3.87;;;;;;;13.21;100.00;100275.31;5031927;28;20195;-84
2023/07/22 01:55:18;;;;;;;4.17;3.77;;;;;;;13.16;100.00;100287.25;5032064;28;20204;-82
2023/07/22 01:57:43;;;;;;;3.67;3.37;;;;;;;13.17;100.00;100280.66;5031866;28;20229;-83
2023/07/22 02:00:10;;;;;;;5.80;2.97;;;;;;;13.17;100.00;100277.09;5013907;28;20286;-83
2023/07/22 02:02:36;;;;;;;3.20;2.90;;;;;;;13.12;100.00;100286.31;5031591;28;20685;-83
2023/07/22 02:05:01;;;;;;;0.23;0.10;;;;;;;13.20;100.00;100281.94;5031622;28;20188;-83
2023/07/22 02:07:28;;;;;;;3.40;2.07;;;;;;;13.19;100.00;100274.84;5013828;28;20246;-84
2023/07/22 02:09:54;;;;;;;1.70;1.50;;;;;;;13.13;100.00;100276.13;5031545;28;20203;-83
2023/07/22 02:12:19;;;;;;;2.37;1.83;;;;;;;13.05;100.00;100281.34;5031461;28;20226;-84
2023/07/22 02:14:44;;;;;;;2.97;2.10;;;;;;;13.01;100.00;100274.91;5033926;28;20191;-84
2023/07/22 02:17:10;;;;;;;2.00;1.60;;;;;;;12.95;100.00;100281.72;5020539;28;20673;-84
2023/07/22 02:19:36;;;;;;;0.47;0.47;;;;;;;13.01;100.00;100288.63;5038234;28;20179;-84
2023/07/22 02:22:03;;;;;;;1.13;1.07;;;;;;;12.99;100.00;100296.38;5020033;28;20578;-83
2023/07/22 02:24:28;;;;;;;0.80;0.77;;;;;;;13.01;100.00;100296.03;5038138;28;20712;-85
2023/07/22 02:26:53;;;;;;;2.03;1.93;;;;;;;13.02;100.00;100298.47;5038157;28;20183;-84
2023/07/22 02:29:19;;;;;;;2.17;2.07;;;;;;;13.07;100.00;100301.03;5036453;28;20179;-84
2023/07/22 02:31:46;;;;;;;3.30;2.80;;;;;;;13.09;100.00;100301.50;5019918;28;20187;-85
2023/07/22 02:34:11;;;;;;;4.40;2.93;;;;;;;13.03;100.00;100302.03;5020222;28;20229;-84
2023/07/22 02:36:37;;;;;;;9.63;3.53;;;;;;;12.98;100.00;100308.47;5020259;28;20595;-84
2023/07/22 02:39:03;;;;;;;3.10;2.90;;;;;;;13.03;100.00;100304.78;5038179;28;20606;-83
2023/07/22 02:41:28;;;;;;;2.63;2.50;;;;;;;13.07;100.00;100302.97;5037608;28;20199;-84
2023/07/22 02:43:53;;;;;;;2.67;1.60;;;;;;;12.95;100.00;100302.88;5019991;28;20219;-83
2023/07/22 02:46:19;;;;;;;10.50;2.77;;;;;;;12.99;100.00;100303.81;5020232;28;20537;-84
2023/07/22 02:48:44;;;;;;;2.20;2.10;;;;;;;12.94;100.00;100301.25;5020021;28;20188;-84
2023/07/22 02:51:10;;;;;;;3.03;2.83;;;;;;;12.91;100.00;100304.66;5037622;28;20651;-84
2023/07/22 02:53:40;;;;;;;1.27;1.27;;;;;;;12.88;100.00;100305.34;5019988;28;20692;-83
2023/07/22 02:56:11;;;;;;;0.40;0.33;;;;;;;12.93;100.00;100313.38;5012129;28;20195;-84
2023/07/22 02:58:36;;;;;;;0.87;0.87;;;;;;;12.86;100.00;100313.88;5037756;28;20176;-84
2023/07/22 03:01:04;;;;;;;3.00;2.63;;;;;;;12.82;100.00;100315.66;5037493;28;20196;-85
2023/07/22 03:03:29;;;;;;;2.53;2.20;;;;;;;12.84;100.00;100318.06;5019955;28;20207;-84
2023/07/22 03:05:54;;;;;;;5.03;3.13;;;;;;;12.86;100.00;100318.53;5037926;28;20592;-85
2023/07/22 03:08:20;;;;;;;1.20;1.20;;;;;;;12.87;100.00;100315.47;5038275;28;20183;-84
2023/07/22 03:10:48;;;;;;;3.80;1.90;;;;;;;12.86;100.00;100310.31;5037582;28;20235;-84
2023/07/22 03:13:15;;;;;;;0.83;0.83;;;;;;;12.89;100.00;100315.16;5037712;28;20233;-84
2023/07/22 03:15:40;;;;;;;6.97;1.80;;;;;;;12.79;100.00;100310.84;5037600;28;20184;-84
2023/07/22 03:18:06;;;;;;;1.73;1.67;;;;;;;12.75;100.00;100321.66;5037532;28;20184;-83
2023/07/22 03:20:32;;;;;;;1.47;1.47;;;;;;;12.74;100.00;100328.28;5037311;28;20274;-84
2023/07/22 03:22:57;;;;;;;0.83;0.83;;;;;;;12.76;100.00;100326.03;5037441;28;20207;-84
2023/07/22 03:25:22;;;;;;;10.90;1.20;;;;;;;12.78;100.00;100321.00;5038465;28;20560;-84
2023/07/22 03:27:47;;;;;;;0.00;0.00;;;;;;;12.77;100.00;100324.88;5034660;28;20313;-84
2023/07/22 03:30:15;;;;;;;1.67;1.57;;;;;;;12.80;100.00;100326.16;5026991;28;20175;-83
2023/07/22 03:32:42;;;;;;;7.13;0.67;;;;;;;12.73;100.00;100329.44;5026671;28;20200;-84
2023/07/22 03:35:09;;;;;;;6.70;1.47;;;;;;;12.69;100.00;100327.66;5019127;28;20266;-84
2023/07/22 03:37:36;;;;;;;2.13;1.93;;;;;;;12.61;100.00;100328.50;5034850;28;20179;-83
2023/07/22 03:40:01;;;;;;;1.03;0.87;;;;;;;12.59;100.00;100334.31;5008489;28;20257;-84
2023/07/22 03:42:27;;;;;;;2.20;2.10;;;;;;;12.64;100.00;100341.53;5017044;28;20204;-83
2023/07/22 03:44:52;;;;;;;1.13;1.13;;;;;;;12.58;100.00;100326.38;5034688;28;20259;-82
2023/07/22 03:47:17;;;;;;;3.03;2.33;;;;;;;12.56;100.00;100334.13;5034724;28;20267;-83
2023/07/22 03:49:42;;;;;;;4.23;1.53;;;;;;;12.57;100.00;100338.50;5034722;28;20186;-83
2023/07/22 03:52:08;;;;;;;1.90;1.80;;;;;;;12.50;100.00;100345.28;5016631;28;20201;-84
2023/07/22 03:54:33;;;;;;;0.67;0.67;;;;;;;12.51;100.00;100343.34;5035050;28;20233;-84
2023/07/22 03:56:58;;;;;;;1.63;1.53;;;;;;;12.52;100.00;100344.97;5034620;28;20650;-84
2023/07/22 03:59:23;;;;;;;2.77;2.57;;;;;;;12.57;100.00;100344.78;5016835;28;20277;-84
2023/07/22 04:01:49;;;;;;;1.20;1.20;;;;;;;12.57;100.00;100343.97;5034443;28;20204;-84
2023/07/22 04:04:14;;;;;;;2.00;1.80;;;;;;;12.55;100.00;100340.75;5016504;28;20592;-84
2023/07/22 04:06:39;;;;;;;2.87;2.33;;;;;;;12.61;100.00;100344.94;5034399;28;20183;-83
2023/07/22 04:09:05;;;;;;;5.63;2.37;;;;;;;12.61;100.00;100342.22;5016485;28;20184;-84
2023/07/22 04:11:30;;;;;;;2.77;2.20;;;;;;;12.64;100.00;100341.53;5016116;28;20638;-84
2023/07/22 04:13:55;;;;;;;2.77;2.60;;;;;;;12.67;100.00;100335.41;5016072;28;20215;-83
2023/07/22 04:16:20;;;;;;;5.43;3.07;;;;;;;12.65;100.00;100337.66;5034242;28;20184;-84
2023/07/22 04:18:46;;;;;;;2.53;2.33;;;;;;;12.70;100.00;100348.44;5016312;28;20187;-84
2023/07/22 04:21:11;;;;;;;1.90;1.80;;;;;;;12.79;100.00;100352.78;5034023;28;20208;-84
2023/07/22 04:23:37;;;;;;;5.03;3.87;;;;;;;12.81;100.00;100349.69;5016481;28;20615;-83
2023/07/22 04:26:07;;;;;;;3.13;2.77;;;;;;;12.91;100.00;100357.56;5016383;28;20685;-83
2023/07/22 04:28:33;;;;;;;2.33;2.13;;;;;;;13.01;100.00;100346.22;5017043;28;20561;-84
2023/07/22 04:31:00;;;;;;;0.20;0.20;;;;;;;13.02;100.00;100347.84;5034330;28;20184;-84
2023/07/22 04:33:26;;;;;;;3.10;1.63;;;;;;;12.99;100.00;100348.50;5034996;28;20214;-84
2023/07/22 04:35:57;;;;;;;3.80;2.20;;;;;;;13.11;100.00;100347.78;5034223;28;20700;-85
2023/07/22 04:38:23;;;;;;;2.33;1.73;;;;;;;13.15;100.00;100345.19;5016367;28;20589;-85
2023/07/22 04:40:48;;;;;;;3.80;2.50;;;;;;;13.17;100.00;100342.94;5006837;28;20196;-85
2023/07/22 04:43:13;;;;;;;2.97;2.73;;;;;;;13.19;100.00;100343.44;5008809;28;20203;-85
2023/07/22 04:45:41;;;;;;;5.33;2.00;;;;;;;13.16;100.00;100341.31;5025279;28;20204;-84
2023/07/22 04:48:06;;;;;;;3.13;2.30;;;;;;;13.29;100.00;100349.31;5022668;28;20237;-82
2023/07/22 04:50:32;;;;;;;2.07;1.80;;;;;;;13.25;100.00;100348.38;4991796;28;20193;-86
2023/07/22 04:52:58;;;;;;;2.57;2.37;;;;;;;13.32;100.00;100347.88;5021960;28;20196;-84
2023/07/22 04:55:23;;;;;;;4.93;3.40;;;;;;;13.35;100.00;100341.72;5030971;28;20266;-84
2023/07/22 04:57:48;;;;;;;18.63;2.13;;;;;;;13.43;100.00;100349.09;5015629;28;20179;-85
2023/07/22 05:00:16;;;;;;;2.37;1.90;;;;;;;13.48;100.00;100348.91;5015296;28;20220;-84
2023/07/22 05:02:43;;;;;;;1.77;1.67;;;;;;;13.53;100.00;100343.22;5015202;28;20210;-85
2023/07/22 05:05:09;;;;;;;3.20;3.00;;;;;;;13.54;100.00;100342.06;5009962;28;20183;-85
2023/07/22 05:07:34;;;;;;;8.33;2.67;;;;;;;13.57;99.98;100343.34;5027071;28;20188;-85
2023/07/22 05:10:00;;;;;;;11.27;3.50;;;;;;;13.64;99.59;100352.66;5020981;28;20198;-84
2023/07/22 05:12:25;;;;;;;4.40;3.23;;;;;;;13.62;99.65;100346.72;5007899;28;20199;-84
2023/07/22 05:14:50;;;;;;;3.30;1.57;;;;;;;13.64;99.53;100340.88;5013027;28;20284;-84
2023/07/22 05:17:16;;;;;;;1.37;1.37;;;;;;;13.70;99.58;100347.78;5021061;28;20195;-85
2023/07/22 05:19:41;;;;;;;1.23;1.23;;;;;;;13.78;99.24;100346.09;5013224;28;20183;-84
2023/07/22 05:22:07;;;;;;;8.73;3.93;;;;;;;13.83;98.83;100354.13;5004532;28;20425;-85
2023/07/22 05:24:33;;;;;;;1.23;1.13;;;;;;;13.91;98.29;100348.59;5014340;28;20179;-85
2023/07/22 05:26:58;;;;;;;1.80;1.70;;;;;;;13.91;97.95;100350.53;5026648;28;20208;-85
2023/07/22 05:29:23;;;;;;;20.47;2.50;;;;;;;13.96;97.73;100342.06;5007595;28;20190;-85
2023/07/22 05:31:48;;;;;;;3.57;3.23;;;;;;;13.99;97.99;100338.66;5014282;28;20190;-84
2023/07/22 05:34:14;;;;;;;1.87;1.40;;;;;;;14.02;97.54;100345.41;5024283;28;20632;-85
2023/07/22 05:36:39;;;;;;;4.73;2.93;;;;;;;14.02;97.08;100348.94;5032012;28;20258;-84
2023/07/22 05:39:05;;;;;;;3.33;3.03;;;;;;;14.02;96.40;100354.44;5014386;28;20642;-85
2023/07/22 05:41:32;;;;;;;8.20;3.93;;;;;;;14.04;96.18;100354.13;5006095;28;20294;-85
2023/07/22 05:43:57;;;;;;;1.67;1.57;;;;;;;14.18;96.26;100351.91;5014108;28;20625;-85
2023/07/22 05:46:22;;;;;;;1.90;1.57;;;;;;;14.29;96.17;100366.81;5032082;28;20226;-85
2023/07/22 05:48:47;;;;;;;1.57;1.40;;;;;;;14.39;96.13;100360.91;5032108;28;20191;-84
2023/07/22 05:51:14;;;;;;;2.47;2.27;;;;;;;14.51;95.59;100363.72;5011128;28;20652;-85
2023/07/22 05:53:39;;;;;;;3.03;2.83;;;;;;;14.63;94.83;100360.22;5023830;28;20205;-85
2023/07/22 05:56:05;;;;;;;2.07;1.93;;;;;;;14.75;94.68;100368.44;5006805;28;20194;-85
2023/07/22 05:58:30;;;;;;;8.10;3.73;;;;;;;14.64;93.78;100361.00;5024255;28;20701;-86
2023/07/22 06:00:55;;;;;;;2.73;1.70;;;;;;;14.70;93.03;100360.44;5006822;28;20251;-85
2023/07/22 06:03:21;;;;;;;3.27;2.60;;;;;;;14.83;92.77;100372.25;5032619;28;20215;-85
2023/07/22 06:05:46;;;;;;;2.43;2.23;;;;;;;14.87;92.16;100362.16;5014503;28;20217;-85
2023/07/22 06:08:12;;;;;;;0.73;0.73;;;;;;;14.96;92.97;100373.09;5032607;28;20195;-85
2023/07/22 06:10:37;;;;;;;2.50;2.17;;;;;;;15.00;91.72;100374.00;5024024;28;20382;-85
2023/07/22 06:13:03;;;;;;;7.30;2.03;;;;;;;15.03;91.24;100373.31;5023967;28;20202;-85
2023/07/22 06:15:29;;;;;;;1.27;1.17;;;;;;;15.00;90.37;100371.25;5032482;28;20191;-85
2023/07/22 06:17:54;;;;;;;4.50;2.03;;;;;;;15.00;90.74;100363.00;5012877;28;20195;-85
2023/07/22 06:20:19;;;;;;;0.90;0.90;;;;;;;15.09;90.98;100383.75;5020433;28;20201;-83
2023/07/22 06:22:44;;;;;;;3.17;2.50;;;;;;;15.07;90.36;100372.28;4999778;28;20294;-85
2023/07/22 06:25:10;;;;;;;6.23;4.40;;;;;;;15.08;90.00;100371.16;5032416;28;20183;-85
2023/07/22 06:27:35;;;;;;;3.10;2.90;;;;;;;15.09;89.27;100367.25;5006663;28;20262;-85
2023/07/22 06:30:01;;;;;;;3.67;0.80;;;;;;;15.19;89.10;100357.75;5003822;28;20858;-84
2023/07/22 06:32:26;;;;;;;0.47;0.47;;;;;;;15.29;88.65;100365.50;5000675;28;20238;-85
2023/07/22 06:34:51;;;;;;;0.77;0.77;;;;;;;15.41;88.47;100368.25;5005981;28;20211;-84
2023/07/22 06:37:16;;;;;;;0.57;0.57;;;;;;;15.53;88.87;100374.91;5014301;28;20179;-85
2023/07/22 06:39:42;;;;;;;1.23;1.20;;;;;;;15.54;87.77;100363.56;5031969;28;20271;-85
2023/07/22 06:42:07;;;;;;;2.87;2.77;;;;;;;15.58;87.79;100360.91;5024046;28;20743;-85
2023/07/22 06:44:32;;;;;;;2.53;1.77;;;;;;;15.65;86.48;100361.97;5031964;28;20242;-84
2023/07/22 06:46:58;;;;;;;1.33;1.33;;;;;;;15.81;86.50;100367.53;5015879;28;20184;-85
2023/07/22 06:49:23;;;;;;;1.10;1.10;;;;;;;15.81;85.45;100369.50;5031896;28;20187;-85
2023/07/22 06:51:48;;;;;;;1.63;1.60;;;;;;;15.71;84.78;100360.56;5014113;28;20267;-85
2023/07/22 06:54:15;;;;;;;1.43;1.27;;;;;;;15.67;85.18;100358.84;5014597;28;20203;-85
2023/07/22 06:56:40;;;;;;;1.80;1.17;;;;;;;15.57;86.37;100362.03;5014743;28;20192;-83
2023/07/22 06:59:05;;;;;;;6.63;4.33;;;;;;;15.45;86.03;100351.84;4998493;28;20263;-86
2023/07/22 07:01:30;;;;;;;4.73;1.93;;;;;;;15.52;86.01;100351.28;5000312;28;20603;-85
2023/07/22 07:03:56;;;;;;;0.30;0.30;;;;;;;15.56;85.74;100365.97;5008827;28;20216;-85
2023/07/22 07:06:21;;;;;;;6.67;2.47;;;;;;;15.54;86.12;100354.50;5010572;28;20735;-85
2023/07/22 07:08:46;;;;;;;2.10;2.00;;;;;;;15.46;86.82;100357.00;5009937;28;20218;-85
2023/07/22 07:11:11;;;;;;;3.40;3.10;;;;;;;15.37;87.22;100352.78;5009944;28;20203;-85
2023/07/22 07:13:37;;;;;;;2.40;2.23;;;;;;;15.45;88.04;100369.16;5009584;28;20218;-85
2023/07/22 07:16:25;;;;;;;2.10;1.23;;;;;;;15.49;87.83;100366.56;5019487;28;20261;-85
2023/07/22 07:18:51;;;;;;;1.03;0.90;;;;;;;15.58;87.93;100367.22;5025524;28;20206;-85
2023/07/22 07:21:17;;;;;;;0.57;0.57;;;;;;;15.67;87.58;100358.84;5001290;28;20581;-84
2023/07/22 07:23:43;;;;;;;0.00;0.00;;;;;;;15.75;87.12;100358.69;4998217;28;20300;-84
2023/07/22 07:26:08;;;;;;;2.47;2.27;;;;;;;15.70;87.16;100358.97;5003563;28;20269;-85
2023/07/22 07:28:33;;;;;;;1.87;1.77;;;;;;;15.58;87.19;100358.16;4996290;28;20235;-85
2023/07/22 07:30:59;;;;;;;1.20;0.63;;;;;;;15.57;86.98;100354.59;5015660;28;20259;-84
2023/07/22 07:33:24;;;;;;;0.17;0.17;;;;;;;15.75;88.38;100366.16;4997873;28;20207;-85
2023/07/22 07:35:50;;;;;;;3.93;2.63;;;;;;;15.69;87.54;100360.09;5011146;28;20247;-85
2023/07/22 07:38:15;;;;;;;2.10;2.00;;;;;;;15.65;87.46;100361.16;5013706;28;20180;-85
2023/07/22 07:40:40;;;;;;;1.13;1.13;;;;;;;15.65;86.41;100366.66;5021341;28;20204;-85
2023/07/22 07:43:05;;;;;;;1.50;1.40;;;;;;;15.73;86.71;100376.72;5008657;28;20204;-83
2023/07/22 07:45:31;;;;;;;1.70;0.63;;;;;;;15.61;85.98;100361.03;5002800;28;20562;-85
2023/07/22 07:47:56;;;;;;;2.07;1.73;;;;;;;15.85;86.20;100379.47;5016345;28;20267;-85
2023/07/22 07:50:21;;;;;;;0.00;0.00;;;;;;;15.82;85.58;100369.16;5013065;28;20188;-85
2023/07/22 07:52:47;;;;;;;4.07;3.77;;;;;;;15.85;85.43;100368.44;5032232;28;20204;-85
2023/07/22 07:55:12;;;;;;;0.93;0.93;;;;;;;15.85;84.33;100376.72;5004990;28;20195;-84
2023/07/22 07:57:37;;;;;;;5.77;4.30;;;;;;;15.77;84.09;100363.88;5013176;28;20191;-84
2023/07/22 08:00:03;;;;;;;2.80;2.57;;;;;;;15.66;83.88;100377.34;5026412;28;20186;-85
2023/07/22 08:02:28;;;;;;;3.50;2.87;;;;;;;15.64;84.60;100373.31;5034559;28;20773;-85
2023/07/22 08:04:54;;;;;;;6.43;3.50;;;;;;;15.61;84.89;100374.00;5007349;28;20190;-84
2023/07/22 08:07:19;;;;;;;1.73;1.63;;;;;;;15.65;85.17;100377.69;5003022;28;20184;-86
2023/07/22 08:09:48;;;;;;;3.33;3.03;;;;;;;15.74;86.09;100379.13;5026486;28;20681;-85
2023/07/22 08:12:14;;;;;;;3.33;3.03;;;;;;;15.79;85.09;100382.81;5021689;28;20215;-85
2023/07/22 08:14:39;;;;;;;0.67;0.50;;;;;;;15.83;85.18;100379.00;5005376;28;20686;-85
2023/07/22 08:17:05;;;;;;;3.37;2.83;;;;;;;15.99;85.55;100384.59;5008379;28;20747;-85
2023/07/22 08:19:30;;;;;;;2.53;2.33;;;;;;;15.98;85.11;100381.03;5001638;28;20176;-85
2023/07/22 08:21:55;;;;;;;2.23;2.03;;;;;;;15.91;84.74;100385.53;5006564;28;20266;-86
2023/07/22 08:24:21;;;;;;;2.40;1.30;;;;;;;16.04;85.03;100385.13;5028733;28;20187;-84
2023/07/22 08:26:46;;;;;;;3.43;2.77;;;;;;;16.11;83.89;100381.00;5022471;28;20262;-85
2023/07/22 08:29:11;;;;;;;3.03;2.63;;;;;;;16.18;83.99;100381.19;5022267;28;20643;-84
2023/07/22 08:31:36;;;;;;;0.50;0.50;;;;;;;16.49;84.12;100386.00;5029529;28;20180;-85
2023/07/22 08:34:02;;;;;;;0.00;0.00;;;;;;;16.62;82.66;100393.06;5030692;28;20200;-86
2023/07/22 08:36:27;;;;;;;3.13;1.50;;;;;;;16.69;81.94;100385.00;5004432;28;20246;-84
2023/07/22 08:38:52;;;;;;;7.53;5.07;;;;;;;16.77;80.85;100392.31;4996153;28;20220;-84
2023/07/22 08:41:18;;;;;;;3.40;3.20;;;;;;;16.91;79.62;100380.84;4996627;28;20208;-85
2023/07/22 08:43:46;;;;;;;6.80;5.10;;;;;;;16.91;79.36;100373.34;5013058;28;20208;-85
2023/07/22 08:46:12;;;;;;;4.67;2.13;;;;;;;17.05;79.80;100385.91;5010242;28;20187;-85
2023/07/22 08:48:42;;;;;;;3.77;2.90;;;;;;;17.10;78.92;100378.19;5023412;28;20196;-85
2023/07/22 08:51:14;;;;;;;2.80;2.50;;;;;;;17.32;78.31;100378.69;5005783;28;20638;-85
2023/07/22 08:53:40;;;;;;;3.37;3.10;;;;;;;17.50;79.04;100390.94;4996168;28;20254;-84
2023/07/22 08:56:05;;;;;;;4.27;3.83;;;;;;;17.80;79.07;100400.38;5030102;28;20188;-85
2023/07/22 08:58:32;;;;;;;2.93;2.73;;;;;;;17.74;77.07;100389.94;5021764;28;20599;-86
2023/07/22 09:00:58;;;;;;;8.10;7.30;;;;;;;17.39;76.69;100374.16;5029706;28;20267;-84
2023/07/22 09:03:24;;;;;;;12.57;5.33;;;;;;;17.21;78.32;100384.78;5013780;28;20347;-84
2023/07/22 09:05:50;;;;;;;2.17;1.63;;;;;;;17.27;78.97;100373.44;4997557;28;20227;-85
2023/07/22 09:08:17;;;;;;;1.17;1.07;;;;;;;17.42;78.59;100380.91;5010844;28;20188;-85
2023/07/22 09:10:43;;;;;;;1.97;1.87;;;;;;;17.69;78.61;100379.19;5021478;28;20180;-84
2023/07/22 09:13:09;;;;;;;0.50;0.50;;;;;;;17.61;77.80;100367.13;5007471;28;20208;-85
2023/07/22 09:15:36;;;;;;;7.50;2.97;;;;;;;17.76;78.15;100374.59;5008524;28;20184;-85
2023/07/22 09:18:03;;;;;;;0.87;0.87;;;;;;;17.82;77.16;100364.88;5006971;28;20234;-85
2023/07/22 09:20:29;;;;;;;2.97;2.77;;;;;;;17.97;76.57;100362.41;5026462;28;20295;-85
2023/07/22 09:22:54;;;;;;;1.90;1.80;;;;;;;18.22;76.17;100360.94;5003489;28;20653;-85
2023/07/22 09:25:20;;;;;;;5.73;5.23;;;;;;;18.11;74.75;100357.97;5017620;28;20266;-84
2023/07/22 09:27:52;;;;;;;5.27;4.80;;;;;;;17.93;74.71;100356.00;5024060;28;20192;-84
2023/07/22 09:30:35;;;;;;;3.07;2.87;;;;;;;18.02;74.45;100353.81;5021135;28;20188;-85
2023/07/22 09:33:04;;;;;;;4.07;3.67;;;;;;;18.16;75.09;100359.66;5021205;28;20261;-85
2023/07/22 09:35:47;;;;;;;10.43;3.17;;;;;;;18.12;74.61;100353.25;5001999;28;20183;-85
2023/07/22 09:38:15;;;;;;;3.07;2.77;;;;;;;18.29;74.35;100355.56;5032953;28;20191;-84
2023/07/22 09:40:41;;;;;;;0.63;0.63;;;;;;;18.54;72.79;100350.50;5023941;28;20200;-85
2023/07/22 09:43:09;;;;;;;1.53;1.43;;;;;;;18.51;71.92;100348.44;5032810;28;20205;-85
2023/07/22 09:45:35;;;;;;;3.03;2.73;;;;;;;18.53;72.00;100342.59;5032527;28;20211;-85
2023/07/22 09:48:00;;;;;;;3.60;2.27;;;;;;;18.61;71.38;100352.59;5021835;28;20202;-84
2023/07/22 09:50:27;;;;;;;0.97;0.60;;;;;;;18.81;71.33;100343.13;5008576;28;20184;-85
2023/07/22 09:52:58;;;;;;;2.87;2.67;;;;;;;18.82;69.45;100339.19;5033801;28;20204;-85
2023/07/22 09:55:28;;;;;;;2.87;1.33;;;;;;;19.06;71.00;100353.78;5027458;28;20191;-86
2023/07/22 09:57:55;;;;;;;1.57;0.93;;;;;;;19.02;69.71;100335.16;5032551;28;20207;-86
2023/07/22 10:00:23;;;;;;;1.70;1.60;;;;;;;19.07;69.16;100336.78;5027245;28;20658;-83
2023/07/22 10:02:49;;;;;;;10.53;1.37;;;;;;;18.89;68.28;100322.66;5034046;28;20199;-85
2023/07/22 10:05:16;;;;;;;7.93;3.30;;;;;;;18.53;69.35;100326.78;5009645;28;20242;-84
2023/07/22 10:07:53;;;;;;;2.83;2.50;;;;;;;18.66;69.70;100319.09;5018197;28;20177;-85
2023/07/22 10:10:21;;;;;;;3.70;2.70;;;;;;;18.95;69.85;100320.38;5001459;28;20275;-83
2023/07/22 10:12:46;;;;;;;1.93;1.73;;;;;;;18.94;68.84;100330.66;5004919;28;20200;-84
2023/07/22 10:15:14;;;;;;;1.37;1.27;;;;;;;19.06;69.53;100328.88;5012352;28;20544;-84
2023/07/22 10:17:42;;;;;;;2.33;1.87;;;;;;;19.00;68.31;100315.34;5024693;28;20194;-84
2023/07/22 10:20:14;;;;;;;2.67;2.47;;;;;;;18.94;68.17;100322.34;5015317;28;20658;-84
2023/07/22 10:22:41;;;;;;;2.27;2.17;;;;;;;18.98;68.50;100312.16;5014807;28;20605;-84
2023/07/22 10:25:07;;;;;;;5.67;2.77;;;;;;;18.83;67.27;100304.78;5007969;28;20184;-85
2023/07/22 10:27:35;;;;;;;0.77;0.77;;;;;;;18.78;67.79;100307.03;5016565;28;20179;-85
2023/07/22 10:30:00;;;;;;;1.87;1.73;;;;;;;18.84;68.51;100308.34;5015406;28;20184;-84
2023/07/22 10:32:32;;;;;;;0.53;0.53;;;;;;;19.08;68.21;100315.44;5032714;28;20203;-85
2023/07/22 10:34:57;;;;;;;6.13;1.30;;;;;;;19.50;69.81;100334.66;5036760;28;20194;-84
2023/07/22 10:37:33;;;;;;;0.40;0.37;;;;;;;19.37;67.52;100306.38;5039971;28;20191;-85
2023/07/22 10:40:24;;;;;;;2.70;2.50;;;;;;;19.20;67.00;100304.16;5021723;28;20270;-84
2023/07/22 10:42:53;;;;;;;5.70;3.10;;;;;;;19.29;66.88;100308.28;5017116;28;20713;-84
2023/07/22 10:45:24;;;;;;;2.30;2.20;;;;;;;19.38;66.18;100307.97;5019319;28;20614;-84
2023/07/22 10:48:05;;;;;;;0.93;0.93;;;;;;;19.56;66.32;100308.28;5028862;28;20192;-84
2023/07/22 10:50:41;;;;;;;0.93;0.93;;;;;;;19.78;65.86;100309.34;5019137;28;20183;-85
2023/07/22 10:53:10;;;;;;;1.87;1.77;;;;;;;19.83;65.74;100307.06;5013652;28;20207;-84
2023/07/22 10:56:04;;;;;;;5.47;2.13;;;;;;;19.85;64.54;100298.34;5035816;28;20214;-85
2023/07/22 10:58:45;;;;;;;2.67;1.90;;;;;;;19.97;63.76;100292.56;5023061;28;20185;-84
2023/07/22 11:01:34;;;;;;;2.63;2.33;;;;;;;20.11;63.26;100289.16;5003359;28;20549;-85
2023/07/22 11:04:12;;;;;;;2.57;2.37;;;;;;;19.91;62.62;100274.66;5022138;28;20224;-85
2023/07/22 11:06:44;;;;;;;1.77;1.67;;;;;;;19.48;62.48;100256.66;5010122;28;20194;-84
2023/07/22 11:09:27;;;;;;;2.50;2.30;;;;;;;19.49;63.13;100269.34;5011861;28;20184;-84
2023/07/22 11:11:54;;;;;;;2.23;2.10;;;;;;;19.65;62.28;100263.63;5026845;28;20173;-84
2023/07/22 11:14:24;;;;;;;1.30;1.20;;;;;;;19.97;62.13;100277.91;5036749;28;20934;-84
2023/07/22 11:16:50;;;;;;;2.60;1.83;;;;;;;19.76;62.02;100267.34;5030415;28;20187;-84
2023/07/22 11:19:17;;;;;;;4.03;2.10;;;;;;;19.84;63.28;100261.50;5015006;28;20192;-84